THY3DW LTFM-UWKD
Flight info
| Callsign | THY3DW |
|---|---|
| Flight time | N/A |
| Altitude | 41000 |
| Route | VICEN1R/35L VICEN UT380 ASMAP UL333 LATGA UT363 GURBU DCT REBLO M11 MATAL T916 LEYLA DCT LEKBA N161 GASBI/K0883F410 N60 KOLIB DCT ATR DCT LEDGI M161 MOF T793 TONSI |
| Aircraft | A332/H-SDE3GHIJ2J3J5M1RVWXY/LB2D1 |
Departure
| Time | 2026-05-07 14:40 |
|---|---|
| Airport | İstanbul Airport (LTFM) |
Arrival
| Time | N/A |
|---|---|
| Airport | Kazan International Airport (UWKD) |
| Time | Latitude | Longitude | Altitude | Speed | Heading |
|---|---|---|---|---|---|
| 2026-05-07 14:06 | 41.26802 | 28.74135 | 333 ft | 0 kts | 91° |
| 2026-05-07 14:29 | 41.26802 | 28.74113 | 337 ft | 4 kts | 88° |
| 2026-05-07 14:29 | 41.26800 | 28.74078 | 332 ft | 4 kts | 80° |
| 2026-05-07 14:30 | 41.26793 | 28.74044 | 332 ft | 4 kts | 62° |
| 2026-05-07 14:30 | 41.26778 | 28.74020 | 332 ft | 4 kts | 9° |
| 2026-05-07 14:30 | 41.26773 | 28.74019 | 332 ft | 5 kts | 359° |
| 2026-05-07 14:33 | 41.26798 | 28.74019 | 333 ft | 13 kts | 359° |
| 2026-05-07 14:33 | 41.26855 | 28.74008 | 332 ft | 0 kts | 343° |
| 2026-05-07 14:34 | 41.26865 | 28.74009 | 335 ft | 8 kts | 2° |
| 2026-05-07 14:34 | 41.26943 | 28.74013 | 334 ft | 12 kts | 1° |
| 2026-05-07 14:34 | 41.27031 | 28.74008 | 336 ft | 12 kts | 346° |
| 2026-05-07 14:34 | 41.27053 | 28.73966 | 332 ft | 6 kts | 280° |
| 2026-05-07 14:35 | 41.27051 | 28.73870 | 335 ft | 16 kts | 268° |
| 2026-05-07 14:35 | 41.27048 | 28.73689 | 334 ft | 21 kts | 269° |
| 2026-05-07 14:35 | 41.27045 | 28.73489 | 334 ft | 22 kts | 269° |
| 2026-05-07 14:35 | 41.27042 | 28.73283 | 335 ft | 23 kts | 269° |
| 2026-05-07 14:36 | 41.27040 | 28.73070 | 338 ft | 23 kts | 268° |
| 2026-05-07 14:36 | 41.26996 | 28.72993 | 334 ft | 6 kts | 195° |
| 2026-05-07 14:36 | 41.26946 | 28.72988 | 335 ft | 9 kts | 181° |
| 2026-05-07 14:36 | 41.26866 | 28.72990 | 337 ft | 13 kts | 179° |
| 2026-05-07 14:37 | 41.26761 | 28.72992 | 334 ft | 14 kts | 180° |
| 2026-05-07 14:37 | 41.26716 | 28.72927 | 334 ft | 6 kts | 266° |
| 2026-05-07 14:37 | 41.26714 | 28.72810 | 338 ft | 19 kts | 269° |
| 2026-05-07 14:38 | 41.26711 | 28.72590 | 334 ft | 26 kts | 269° |
| 2026-05-07 14:38 | 41.26735 | 28.72520 | 333 ft | 5 kts | 329° |
| 2026-05-07 14:38 | 41.26765 | 28.72512 | 338 ft | 0 kts | 359° |
| 2026-05-07 14:39 | 41.26799 | 28.72511 | 332 ft | 25 kts | 359° |
| 2026-05-07 14:39 | 41.27193 | 28.72502 | 335 ft | 86 kts | 358° |
| 2026-05-07 14:39 | 41.27668 | 28.72495 | 334 ft | 119 kts | 359° |
| 2026-05-07 14:39 | 41.28973 | 28.72471 | 689 ft | 149 kts | 1° |
| 2026-05-07 14:40 | 41.29681 | 28.72482 | 1008 ft | 156 kts | 7° |
| 2026-05-07 14:40 | 41.30791 | 28.72623 | 1497 ft | 167 kts | 5° |
| 2026-05-07 14:40 | 41.32007 | 28.72723 | 1832 ft | 184 kts | 360° |
| 2026-05-07 14:40 | 41.33368 | 28.72713 | 2106 ft | 209 kts | 357° |
| 2026-05-07 14:41 | 41.34926 | 28.72656 | 2363 ft | 237 kts | 354° |
| 2026-05-07 14:41 | 41.36568 | 28.72078 | 2832 ft | 251 kts | 327° |
| 2026-05-07 14:41 | 41.37760 | 28.70439 | 3632 ft | 248 kts | 297° |
| 2026-05-07 14:41 | 41.38254 | 28.68258 | 4488 ft | 250 kts | 275° |
| 2026-05-07 14:42 | 41.38282 | 28.65922 | 5282 ft | 255 kts | 269° |
| 2026-05-07 14:42 | 41.38215 | 28.63536 | 6112 ft | 260 kts | 268° |
| 2026-05-07 14:42 | 41.38141 | 28.61114 | 6968 ft | 264 kts | 266° |
| 2026-05-07 14:42 | 41.37775 | 28.58712 | 7799 ft | 270 kts | 250° |
| 2026-05-07 14:43 | 41.36727 | 28.56616 | 8664 ft | 278 kts | 225° |
| 2026-05-07 14:43 | 41.35047 | 28.55301 | 9516 ft | 288 kts | 199° |
| 2026-05-07 14:43 | 41.33041 | 28.54978 | 10312 ft | 296 kts | 183° |
| 2026-05-07 14:43 | 41.30913 | 28.55016 | 10719 ft | 316 kts | 180° |
| 2026-05-07 14:44 | 41.28640 | 28.55115 | 11047 ft | 337 kts | 179° |
| 2026-05-07 14:44 | 41.26241 | 28.55473 | 11325 ft | 359 kts | 167° |
| 2026-05-07 14:44 | 41.23900 | 28.56811 | 11745 ft | 375 kts | 146° |
| 2026-05-07 14:44 | 41.21881 | 28.59050 | 12399 ft | 381 kts | 137° |
| 2026-05-07 14:45 | 41.19966 | 28.61514 | 13102 ft | 385 kts | 135° |
| 2026-05-07 14:45 | 41.18046 | 28.64020 | 13781 ft | 389 kts | 136° |
| 2026-05-07 14:45 | 41.16100 | 28.66543 | 14411 ft | 393 kts | 136° |
| 2026-05-07 14:45 | 41.14125 | 28.69088 | 14978 ft | 398 kts | 135° |
| 2026-05-07 14:46 | 41.12274 | 28.71839 | 15542 ft | 403 kts | 126° |
| 2026-05-07 14:46 | 41.10680 | 28.74908 | 16129 ft | 406 kts | 123° |
| 2026-05-07 14:46 | 41.09135 | 28.78069 | 16718 ft | 411 kts | 122° |
| 2026-05-07 14:46 | 41.07580 | 28.81265 | 17299 ft | 414 kts | 122° |
| 2026-05-07 14:47 | 41.06027 | 28.84445 | 17855 ft | 418 kts | 122° |
| 2026-05-07 14:47 | 41.04432 | 28.87698 | 18406 ft | 423 kts | 122° |
| 2026-05-07 14:47 | 41.02809 | 28.90971 | 18873 ft | 427 kts | 124° |
| 2026-05-07 14:47 | 41.00927 | 28.94036 | 19320 ft | 432 kts | 133° |
| 2026-05-07 14:48 | 40.98811 | 28.96883 | 19775 ft | 437 kts | 135° |
| 2026-05-07 14:48 | 40.96626 | 28.99716 | 20135 ft | 443 kts | 135° |
| 2026-05-07 14:48 | 40.94410 | 29.02578 | 20586 ft | 446 kts | 135° |
| 2026-05-07 14:48 | 40.92182 | 29.05459 | 21017 ft | 450 kts | 135° |
| 2026-05-07 14:49 | 40.89933 | 29.08370 | 21486 ft | 454 kts | 135° |
| 2026-05-07 14:49 | 40.87669 | 29.11307 | 21898 ft | 458 kts | 134° |
| 2026-05-07 14:49 | 40.85579 | 29.14481 | 22322 ft | 460 kts | 124° |
| 2026-05-07 14:49 | 40.84022 | 29.18158 | 22732 ft | 460 kts | 109° |
| 2026-05-07 14:50 | 40.83035 | 29.22166 | 23156 ft | 461 kts | 102° |
| 2026-05-07 14:50 | 40.82222 | 29.26261 | 23574 ft | 464 kts | 101° |
| 2026-05-07 14:50 | 40.81421 | 29.30415 | 23901 ft | 468 kts | 101° |
| 2026-05-07 14:50 | 40.80609 | 29.34591 | 24239 ft | 471 kts | 101° |
| 2026-05-07 14:51 | 40.79785 | 29.38786 | 24612 ft | 474 kts | 101° |
| 2026-05-07 14:51 | 40.78950 | 29.43002 | 24962 ft | 477 kts | 101° |
| 2026-05-07 14:51 | 40.78107 | 29.47240 | 25295 ft | 480 kts | 101° |
| 2026-05-07 14:51 | 40.77254 | 29.51512 | 25658 ft | 482 kts | 101° |
| 2026-05-07 14:52 | 40.76395 | 29.55797 | 25975 ft | 485 kts | 101° |
| 2026-05-07 14:52 | 40.75529 | 29.60113 | 26236 ft | 489 kts | 101° |
| 2026-05-07 14:52 | 40.74665 | 29.64402 | 26579 ft | 491 kts | 101° |
| 2026-05-07 14:52 | 40.73839 | 29.68780 | 26909 ft | 492 kts | 97° |
| 2026-05-07 14:53 | 40.73417 | 29.73244 | 27241 ft | 490 kts | 89° |
| 2026-05-07 14:53 | 40.73289 | 29.77730 | 27558 ft | 491 kts | 87° |
| 2026-05-07 14:53 | 40.73214 | 29.82234 | 27884 ft | 493 kts | 86° |
| 2026-05-07 14:53 | 40.73142 | 29.86770 | 28192 ft | 496 kts | 86° |
| 2026-05-07 14:54 | 40.73065 | 29.91318 | 28491 ft | 498 kts | 86° |
| 2026-05-07 14:54 | 40.72982 | 29.95897 | 28800 ft | 500 kts | 86° |
| 2026-05-07 14:54 | 40.72895 | 30.00495 | 29115 ft | 503 kts | 86° |
| 2026-05-07 14:54 | 40.72671 | 30.05113 | 29417 ft | 509 kts | 93° |
| 2026-05-07 14:55 | 40.71928 | 30.09716 | 29710 ft | 518 kts | 103° |
| 2026-05-07 14:55 | 40.70807 | 30.14249 | 29977 ft | 522 kts | 105° |
| 2026-05-07 14:55 | 40.69604 | 30.18780 | 30221 ft | 525 kts | 106° |
| 2026-05-07 14:55 | 40.68391 | 30.23312 | 30529 ft | 526 kts | 106° |
| 2026-05-07 14:56 | 40.67210 | 30.27870 | 30933 ft | 523 kts | 103° |
| 2026-05-07 14:56 | 40.66413 | 30.32501 | 31341 ft | 515 kts | 95° |
| 2026-05-07 14:56 | 40.65897 | 30.37164 | 31692 ft | 513 kts | 92° |
| 2026-05-07 14:56 | 40.65483 | 30.41824 | 32050 ft | 512 kts | 91° |
| 2026-05-07 14:57 | 40.65117 | 30.46488 | 32354 ft | 512 kts | 91° |
| 2026-05-07 14:57 | 40.64765 | 30.51129 | 32700 ft | 511 kts | 90° |
| 2026-05-07 14:57 | 40.64405 | 30.55797 | 33078 ft | 510 kts | 91° |
| 2026-05-07 14:57 | 40.64036 | 30.60431 | 33434 ft | 509 kts | 91° |
| 2026-05-07 14:58 | 40.63657 | 30.65058 | 33782 ft | 508 kts | 91° |
| 2026-05-07 14:58 | 40.63217 | 30.69674 | 34113 ft | 510 kts | 95° |
| 2026-05-07 14:58 | 40.62442 | 30.74243 | 34427 ft | 512 kts | 99° |
| 2026-05-07 14:58 | 40.61557 | 30.78787 | 34679 ft | 512 kts | 100° |
| 2026-05-07 14:59 | 40.60622 | 30.83312 | 34966 ft | 511 kts | 101° |
| 2026-05-07 14:59 | 40.59665 | 30.87809 | 35261 ft | 510 kts | 101° |
| 2026-05-07 14:59 | 40.58699 | 30.92291 | 35539 ft | 509 kts | 102° |
| 2026-05-07 14:59 | 40.57731 | 30.96772 | 35833 ft | 508 kts | 102° |
| 2026-05-07 15:00 | 40.56769 | 31.01235 | 36099 ft | 508 kts | 102° |
| 2026-05-07 15:00 | 40.55809 | 31.05701 | 36364 ft | 507 kts | 102° |
| 2026-05-07 15:00 | 40.54852 | 31.10161 | 36634 ft | 507 kts | 102° |
| 2026-05-07 15:00 | 40.53893 | 31.14627 | 36824 ft | 507 kts | 102° |
| 2026-05-07 15:01 | 40.52949 | 31.19018 | 37089 ft | 506 kts | 102° |
| 2026-05-07 15:01 | 40.51991 | 31.23465 | 37334 ft | 505 kts | 102° |
| 2026-05-07 15:01 | 40.51036 | 31.27894 | 37638 ft | 503 kts | 102° |
| 2026-05-07 15:01 | 40.50080 | 31.32318 | 37924 ft | 502 kts | 102° |
| 2026-05-07 15:02 | 40.49126 | 31.36724 | 38212 ft | 501 kts | 103° |
| 2026-05-07 15:02 | 40.48172 | 31.41119 | 38460 ft | 500 kts | 103° |
| 2026-05-07 15:02 | 40.47220 | 31.45499 | 38720 ft | 498 kts | 103° |
| 2026-05-07 15:02 | 40.46267 | 31.49871 | 38880 ft | 499 kts | 103° |
| 2026-05-07 15:03 | 40.45311 | 31.54249 | 39027 ft | 499 kts | 103° |
| 2026-05-07 15:03 | 40.44352 | 31.58635 | 39105 ft | 500 kts | 103° |
| 2026-05-07 15:03 | 40.42418 | 31.67438 | 39131 ft | 502 kts | 103° |
| 2026-05-07 15:04 | 40.40478 | 31.76238 | 39127 ft | 501 kts | 103° |
| 2026-05-07 15:04 | 40.38547 | 31.84957 | 39143 ft | 502 kts | 103° |
| 2026-05-07 15:05 | 40.36592 | 31.93759 | 39132 ft | 502 kts | 103° |
| 2026-05-07 15:05 | 40.34633 | 32.02546 | 39136 ft | 502 kts | 103° |
| 2026-05-07 15:06 | 40.32693 | 32.11335 | 39132 ft | 502 kts | 102° |
| 2026-05-07 15:06 | 40.30926 | 32.20177 | 39138 ft | 501 kts | 101° |
| 2026-05-07 15:07 | 40.29213 | 32.29012 | 39132 ft | 501 kts | 102° |
| 2026-05-07 15:07 | 40.27478 | 32.37851 | 39143 ft | 501 kts | 102° |
| 2026-05-07 15:08 | 40.25717 | 32.46698 | 39146 ft | 501 kts | 102° |
| 2026-05-07 15:08 | 40.23959 | 32.55467 | 39144 ft | 501 kts | 102° |
| 2026-05-07 15:09 | 40.22181 | 32.64292 | 39145 ft | 501 kts | 102° |
| 2026-05-07 15:09 | 40.20398 | 32.73114 | 39147 ft | 502 kts | 102° |
| 2026-05-07 15:10 | 40.18608 | 32.81932 | 39156 ft | 501 kts | 102° |
| 2026-05-07 15:10 | 40.16814 | 32.90738 | 39157 ft | 501 kts | 102° |
| 2026-05-07 15:11 | 40.15151 | 32.99573 | 39157 ft | 499 kts | 95° |
| 2026-05-07 15:11 | 40.14861 | 33.08551 | 39171 ft | 493 kts | 85° |
| 2026-05-07 15:12 | 40.15068 | 33.17498 | 39157 ft | 492 kts | 84° |
| 2026-05-07 15:12 | 40.15364 | 33.26434 | 39150 ft | 492 kts | 84° |
| 2026-05-07 15:13 | 40.15639 | 33.35309 | 39147 ft | 492 kts | 84° |
| 2026-05-07 15:13 | 40.15887 | 33.44248 | 39132 ft | 492 kts | 84° |
| 2026-05-07 15:14 | 40.16120 | 33.53204 | 39135 ft | 493 kts | 84° |
| 2026-05-07 15:14 | 40.16346 | 33.62171 | 39129 ft | 493 kts | 84° |
| 2026-05-07 15:15 | 40.16565 | 33.71125 | 39124 ft | 493 kts | 84° |
| 2026-05-07 15:15 | 40.16779 | 33.80088 | 39120 ft | 493 kts | 84° |
| 2026-05-07 15:16 | 40.17488 | 33.88955 | 39118 ft | 490 kts | 78° |
| 2026-05-07 15:16 | 40.18432 | 33.97766 | 39118 ft | 489 kts | 78° |
| 2026-05-07 15:17 | 40.19416 | 34.06569 | 39125 ft | 489 kts | 78° |
| 2026-05-07 15:17 | 40.20390 | 34.15368 | 39119 ft | 489 kts | 78° |
| 2026-05-07 15:18 | 40.21348 | 34.24180 | 39118 ft | 489 kts | 78° |
| 2026-05-07 15:18 | 40.22295 | 34.32985 | 39124 ft | 489 kts | 78° |
| 2026-05-07 15:19 | 40.23230 | 34.41746 | 39121 ft | 489 kts | 78° |
| 2026-05-07 15:19 | 40.24165 | 34.50562 | 39127 ft | 489 kts | 78° |
| 2026-05-07 15:20 | 40.25094 | 34.59384 | 39126 ft | 489 kts | 79° |
| 2026-05-07 15:20 | 40.26015 | 34.68207 | 39125 ft | 489 kts | 79° |
| 2026-05-07 15:21 | 40.26930 | 34.77035 | 39129 ft | 489 kts | 79° |
| 2026-05-07 15:21 | 40.27840 | 34.85878 | 39128 ft | 490 kts | 79° |
| 2026-05-07 15:22 | 40.28745 | 34.94744 | 39126 ft | 491 kts | 79° |
| 2026-05-07 15:22 | 40.29642 | 35.03600 | 39128 ft | 491 kts | 79° |
| 2026-05-07 15:23 | 40.30529 | 35.12416 | 39121 ft | 491 kts | 79° |
| 2026-05-07 15:23 | 40.31413 | 35.21286 | 39120 ft | 491 kts | 79° |
| 2026-05-07 15:24 | 40.32292 | 35.30164 | 39119 ft | 492 kts | 79° |
| 2026-05-07 15:24 | 40.33165 | 35.39063 | 39119 ft | 492 kts | 79° |
| 2026-05-07 15:25 | 40.34031 | 35.47958 | 39113 ft | 492 kts | 80° |
| 2026-05-07 15:25 | 40.34889 | 35.56845 | 39112 ft | 491 kts | 80° |
| 2026-05-07 15:26 | 40.35739 | 35.65723 | 39114 ft | 491 kts | 80° |
| 2026-05-07 15:26 | 40.36584 | 35.74615 | 39115 ft | 491 kts | 80° |
| 2026-05-07 15:27 | 40.37420 | 35.83499 | 39113 ft | 491 kts | 80° |
| 2026-05-07 15:27 | 40.38249 | 35.92373 | 39115 ft | 490 kts | 81° |
| 2026-05-07 15:28 | 40.39066 | 36.01191 | 39122 ft | 490 kts | 81° |
| 2026-05-07 15:28 | 40.39881 | 36.10062 | 39124 ft | 490 kts | 81° |
| 2026-05-07 15:29 | 40.40688 | 36.18928 | 39133 ft | 490 kts | 81° |
| 2026-05-07 15:29 | 40.41489 | 36.27807 | 39129 ft | 490 kts | 81° |
| 2026-05-07 15:30 | 40.42283 | 36.36677 | 39128 ft | 489 kts | 81° |
| 2026-05-07 15:30 | 40.43064 | 36.45480 | 39129 ft | 489 kts | 81° |
| 2026-05-07 15:31 | 40.43843 | 36.54340 | 39130 ft | 489 kts | 82° |
| 2026-05-07 15:31 | 40.44616 | 36.63208 | 39128 ft | 489 kts | 82° |
| 2026-05-07 15:32 | 40.45254 | 36.70581 | 39132 ft | 489 kts | 82° |
| 2026-05-07 15:32 | 40.46014 | 36.79453 | 39136 ft | 488 kts | 82° |
| 2026-05-07 15:33 | 40.46766 | 36.88321 | 39137 ft | 488 kts | 82° |
| 2026-05-07 15:33 | 40.47512 | 36.97187 | 39143 ft | 488 kts | 82° |
| 2026-05-07 15:34 | 40.48251 | 37.06051 | 39143 ft | 488 kts | 82° |
| 2026-05-07 15:34 | 40.48984 | 37.14921 | 39149 ft | 489 kts | 82° |
| 2026-05-07 15:35 | 40.49710 | 37.23802 | 39152 ft | 489 kts | 82° |
| 2026-05-07 15:35 | 40.50430 | 37.32682 | 39151 ft | 489 kts | 82° |
| 2026-05-07 15:36 | 40.51137 | 37.41498 | 39162 ft | 489 kts | 83° |
| 2026-05-07 15:36 | 40.51843 | 37.50380 | 39156 ft | 489 kts | 83° |
| 2026-05-07 15:37 | 40.52541 | 37.59262 | 39164 ft | 489 kts | 83° |
| 2026-05-07 15:37 | 40.53234 | 37.68161 | 39163 ft | 489 kts | 83° |
| 2026-05-07 15:38 | 40.53921 | 37.77065 | 39163 ft | 490 kts | 83° |
| 2026-05-07 15:38 | 40.54600 | 37.85971 | 39164 ft | 490 kts | 83° |
| 2026-05-07 15:39 | 40.55273 | 37.94881 | 39170 ft | 489 kts | 83° |
| 2026-05-07 15:39 | 40.55939 | 38.03794 | 39168 ft | 489 kts | 83° |
| 2026-05-07 15:40 | 40.56599 | 38.12716 | 39185 ft | 491 kts | 83° |
| 2026-05-07 15:40 | 40.57252 | 38.21649 | 39180 ft | 492 kts | 83° |
| 2026-05-07 15:41 | 40.57901 | 38.30613 | 39183 ft | 492 kts | 84° |
| 2026-05-07 15:41 | 40.58537 | 38.39502 | 39181 ft | 492 kts | 84° |
| 2026-05-07 15:42 | 40.59172 | 38.48458 | 39179 ft | 491 kts | 84° |
| 2026-05-07 15:42 | 40.59800 | 38.57416 | 39181 ft | 491 kts | 84° |
| 2026-05-07 15:43 | 40.60419 | 38.66359 | 39178 ft | 491 kts | 84° |
| 2026-05-07 15:43 | 40.61032 | 38.75313 | 39179 ft | 491 kts | 84° |
| 2026-05-07 15:44 | 40.61638 | 38.84269 | 39177 ft | 491 kts | 84° |
| 2026-05-07 15:44 | 40.62236 | 38.93215 | 39177 ft | 491 kts | 84° |
| 2026-05-07 15:45 | 40.62828 | 39.02162 | 39165 ft | 490 kts | 84° |
| 2026-05-07 15:45 | 40.63409 | 39.11054 | 39175 ft | 491 kts | 84° |
| 2026-05-07 15:46 | 40.64274 | 39.24493 | 39174 ft | 491 kts | 85° |
| 2026-05-07 15:47 | 40.64842 | 39.33454 | 39178 ft | 491 kts | 85° |
| 2026-05-07 15:47 | 40.65403 | 39.42406 | 39184 ft | 491 kts | 85° |
| 2026-05-07 15:48 | 40.65957 | 39.51364 | 39188 ft | 491 kts | 85° |
| 2026-05-07 15:48 | 40.66503 | 39.60324 | 39197 ft | 491 kts | 85° |
| 2026-05-07 15:49 | 40.67043 | 39.69281 | 39195 ft | 491 kts | 85° |
| 2026-05-07 15:49 | 40.67572 | 39.78185 | 39193 ft | 491 kts | 85° |
| 2026-05-07 15:50 | 40.68099 | 39.87152 | 39188 ft | 491 kts | 85° |
| 2026-05-07 15:50 | 40.68618 | 39.96120 | 39179 ft | 491 kts | 86° |
| 2026-05-07 15:51 | 40.69130 | 40.05096 | 39186 ft | 492 kts | 86° |
| 2026-05-07 15:51 | 40.69637 | 40.14096 | 39187 ft | 492 kts | 86° |
| 2026-05-07 15:52 | 40.70137 | 40.23089 | 39190 ft | 492 kts | 86° |
| 2026-05-07 15:52 | 40.70630 | 40.32082 | 39191 ft | 492 kts | 86° |
| 2026-05-07 15:53 | 40.71116 | 40.41082 | 39188 ft | 492 kts | 86° |
| 2026-05-07 15:53 | 40.71594 | 40.50086 | 39199 ft | 493 kts | 86° |
| 2026-05-07 15:54 | 40.72065 | 40.59050 | 39192 ft | 494 kts | 86° |
| 2026-05-07 15:54 | 40.72531 | 40.68079 | 39193 ft | 494 kts | 86° |
| 2026-05-07 15:55 | 40.72990 | 40.77121 | 39187 ft | 494 kts | 86° |
| 2026-05-07 15:55 | 40.73442 | 40.86150 | 39191 ft | 493 kts | 87° |
| 2026-05-07 15:56 | 40.73888 | 40.95191 | 39183 ft | 495 kts | 87° |
| 2026-05-07 15:56 | 40.74329 | 41.04283 | 39179 ft | 497 kts | 87° |
| 2026-05-07 15:57 | 40.74763 | 41.13390 | 39175 ft | 497 kts | 87° |
| 2026-05-07 15:57 | 40.75191 | 41.22485 | 39173 ft | 497 kts | 87° |
| 2026-05-07 15:58 | 40.75607 | 41.31521 | 39162 ft | 497 kts | 87° |
| 2026-05-07 15:58 | 40.76019 | 41.40623 | 39165 ft | 498 kts | 88° |
| 2026-05-07 15:59 | 40.76426 | 41.49773 | 39155 ft | 501 kts | 88° |
| 2026-05-07 15:59 | 40.76827 | 41.58942 | 39159 ft | 501 kts | 88° |
| 2026-05-07 16:00 | 40.77222 | 41.68124 | 39155 ft | 501 kts | 88° |
| 2026-05-07 16:00 | 40.77608 | 41.77298 | 39160 ft | 501 kts | 88° |
| 2026-05-07 16:01 | 40.77988 | 41.86495 | 39158 ft | 502 kts | 88° |
| 2026-05-07 16:01 | 40.78362 | 41.95717 | 39164 ft | 505 kts | 88° |
| 2026-05-07 16:02 | 40.78730 | 42.04974 | 39169 ft | 505 kts | 88° |
| 2026-05-07 16:02 | 40.79088 | 42.14170 | 39169 ft | 505 kts | 88° |
| 2026-05-07 16:03 | 40.79441 | 42.23421 | 39179 ft | 505 kts | 88° |
| 2026-05-07 16:03 | 40.79787 | 42.32680 | 39167 ft | 505 kts | 89° |
| 2026-05-07 16:04 | 40.80125 | 42.41947 | 39181 ft | 506 kts | 89° |
| 2026-05-07 16:04 | 40.80457 | 42.51250 | 39185 ft | 507 kts | 89° |
| 2026-05-07 16:05 | 40.80782 | 42.60543 | 39188 ft | 507 kts | 89° |
| 2026-05-07 16:05 | 40.81099 | 42.69829 | 39185 ft | 506 kts | 89° |
| 2026-05-07 16:06 | 40.81409 | 42.79114 | 39186 ft | 506 kts | 89° |
| 2026-05-07 16:06 | 40.81709 | 42.88347 | 39187 ft | 507 kts | 89° |
| 2026-05-07 16:07 | 40.82004 | 42.97663 | 39180 ft | 508 kts | 89° |
| 2026-05-07 16:07 | 40.82291 | 43.06976 | 39177 ft | 508 kts | 89° |
| 2026-05-07 16:08 | 40.82573 | 43.16298 | 39174 ft | 508 kts | 89° |
| 2026-05-07 16:08 | 40.82833 | 43.25181 | 39167 ft | 508 kts | 90° |
| 2026-05-07 16:09 | 40.83099 | 43.34517 | 39167 ft | 508 kts | 90° |
| 2026-05-07 16:09 | 40.83357 | 43.43842 | 39165 ft | 508 kts | 90° |
| 2026-05-07 16:10 | 40.83608 | 43.53176 | 39162 ft | 509 kts | 90° |
| 2026-05-07 16:10 | 40.83851 | 43.62464 | 39162 ft | 509 kts | 90° |
| 2026-05-07 16:11 | 40.83990 | 43.71807 | 39167 ft | 508 kts | 93° |
| 2026-05-07 16:11 | 40.83716 | 43.81125 | 39167 ft | 508 kts | 95° |
| 2026-05-07 16:12 | 40.83336 | 43.90448 | 39170 ft | 509 kts | 95° |
| 2026-05-07 16:12 | 40.82981 | 43.99781 | 39173 ft | 509 kts | 95° |
| 2026-05-07 16:13 | 40.82650 | 44.09127 | 39182 ft | 509 kts | 95° |
| 2026-05-07 16:13 | 40.82323 | 44.18466 | 39174 ft | 509 kts | 95° |
| 2026-05-07 16:14 | 40.81987 | 44.27814 | 39192 ft | 510 kts | 95° |
| 2026-05-07 16:14 | 40.81642 | 44.37175 | 39194 ft | 511 kts | 95° |
| 2026-05-07 16:15 | 40.81291 | 44.46476 | 39194 ft | 511 kts | 95° |
| 2026-05-07 16:15 | 40.80930 | 44.55844 | 39198 ft | 511 kts | 95° |
| 2026-05-07 16:16 | 40.80563 | 44.65196 | 39181 ft | 511 kts | 95° |
| 2026-05-07 16:16 | 40.80185 | 44.74579 | 39196 ft | 512 kts | 96° |
| 2026-05-07 16:17 | 40.79799 | 44.83975 | 39185 ft | 512 kts | 96° |
| 2026-05-07 16:17 | 40.79406 | 44.93371 | 39189 ft | 513 kts | 96° |
| 2026-05-07 16:18 | 40.79005 | 45.02755 | 39181 ft | 512 kts | 96° |
| 2026-05-07 16:18 | 40.78599 | 45.12127 | 39171 ft | 511 kts | 96° |
| 2026-05-07 16:19 | 40.78184 | 45.21495 | 39171 ft | 511 kts | 96° |
| 2026-05-07 16:19 | 40.77764 | 45.30809 | 39165 ft | 511 kts | 96° |
| 2026-05-07 16:20 | 40.77334 | 45.40168 | 39163 ft | 511 kts | 96° |
| 2026-05-07 16:20 | 40.77026 | 45.49547 | 39148 ft | 514 kts | 89° |
| 2026-05-07 16:21 | 40.77743 | 45.58985 | 39153 ft | 519 kts | 85° |
| 2026-05-07 16:21 | 40.78707 | 45.68431 | 39142 ft | 520 kts | 84° |
| 2026-05-07 16:22 | 40.79711 | 45.77882 | 39144 ft | 520 kts | 84° |
| 2026-05-07 16:22 | 40.80694 | 45.87334 | 39131 ft | 520 kts | 84° |
| 2026-05-07 16:23 | 40.81654 | 45.96790 | 39114 ft | 520 kts | 84° |
| 2026-05-07 16:23 | 40.82602 | 46.06253 | 39102 ft | 520 kts | 85° |
| 2026-05-07 16:24 | 40.83543 | 46.15742 | 39117 ft | 523 kts | 85° |